Terminal Aerodrome Forecast
Issued by NWS Tampa Bay Area, FL

Home | Current Version | Previous Version | Text Only | Print | Product List | Glossary Off
Versions: 1 2 3 4 5 6 7 8 9 10 11 12 13 14 15 16 17 18 19 20 21 22 23 24 25 26

000
FTUS42 KTBW 202300
TAFFMY
TAF
KFMY 202340Z 2100/2124 36007KT P6SM SCT040 SCT250
      TEMPO 2100/2103 BKN040
     FM210300 03006KT P6SM SCT040 SCT250
     FM210600 03005KT P6SM SCT030 BKN250
      TEMPO 2108/2112 BKN030
     FM211500 04008KT P6SM SCT035 SCT250
     FM211800 01008KT P6SM SCT040 SCT250
     FM212100 34008KT P6SM SCT050 SCT250=

USA.gov is the U.S. government's official web portal to all federal, state and local government web resources and services.